createdAt,value
2019-05-25T00:00:43.320Z,3.40
2019-05-25T00:01:43.294Z,3.60
2019-05-25T00:02:43.313Z,3.70
2019-05-25T00:03:43.332Z,3.80
2019-05-25T00:04:43.264Z,3.90
2019-05-25T00:05:43.241Z,3.80
2019-05-25T00:06:43.244Z,3.70
2019-05-25T00:07:43.223Z,3.90
2019-05-25T00:08:43.255Z,3.80
2019-05-25T00:09:43.213Z,3.90
2019-05-25T00:10:43.200Z,3.90
2019-05-25T00:11:43.213Z,3.50
2019-05-25T00:12:43.197Z,3.90
2019-05-25T00:13:43.190Z,3.80
2019-05-25T00:14:43.152Z,3.70
2019-05-25T00:15:43.152Z,3.60
2019-05-25T00:16:43.129Z,3.60
2019-05-25T00:17:43.660Z,3.40
2019-05-25T00:18:43.128Z,3.40
2019-05-25T00:19:43.086Z,4.20
2019-05-25T00:20:43.090Z,3.80
2019-05-25T00:21:43.078Z,3.70
2019-05-25T00:22:43.057Z,4.00
2019-05-25T00:23:43.063Z,3.80
2019-05-25T00:24:43.037Z,3.90
2019-05-25T00:25:43.025Z,4.00
2019-05-25T00:26:43.028Z,3.60
2019-05-25T00:27:43.013Z,4.30
2019-05-25T00:28:43.065Z,4.20
2019-05-25T00:29:42.984Z,4.30
2019-05-25T00:30:42.964Z,4.20
2019-05-25T00:31:42.965Z,4.20
2019-05-25T00:32:42.950Z,4.10
2019-05-25T00:33:42.947Z,4.00
2019-05-25T00:34:42.929Z,4.00
2019-05-25T00:35:42.921Z,4.40
2019-05-25T00:36:42.900Z,4.10
2019-05-25T00:37:42.894Z,4.40
2019-05-25T00:38:42.905Z,4.30
2019-05-25T00:39:42.877Z,4.60
2019-05-25T00:40:42.876Z,4.00
2019-05-25T00:41:42.858Z,4.50
2019-05-25T00:42:42.833Z,4.10
2019-05-25T00:43:42.857Z,4.00
2019-05-25T00:44:42.820Z,4.50
2019-05-25T00:45:42.804Z,4.40
2019-05-25T00:46:42.803Z,4.70
2019-05-25T00:47:42.792Z,4.20
2019-05-25T00:48:42.793Z,4.30
2019-05-25T00:49:42.772Z,4.30
2019-05-25T00:50:42.753Z,4.70
2019-05-25T00:51:42.737Z,4.10
2019-05-25T00:52:42.742Z,4.40
2019-05-25T00:53:42.764Z,4.10
2019-05-25T00:54:42.706Z,4.60
2019-05-25T00:55:42.700Z,4.50
2019-05-25T00:56:42.695Z,5.00
2019-05-25T00:57:42.708Z,4.60
2019-05-25T00:58:42.689Z,4.60
2019-05-25T00:59:42.656Z,4.30
2019-05-25T01:00:42.644Z,4.40
2019-05-25T01:01:42.636Z,4.60
2019-05-25T01:03:51.890Z,4.40
2019-05-25T01:04:52.820Z,4.80
2019-05-25T01:05:52.809Z,4.20
2019-05-25T01:06:52.806Z,4.40
2019-05-25T01:07:52.784Z,4.80
2019-05-25T01:08:52.784Z,4.50
2019-05-25T01:09:52.783Z,4.70
2019-05-25T01:10:52.759Z,4.80
2019-05-25T01:11:52.760Z,5.10
2019-05-25T01:12:52.738Z,4.90
2019-05-25T01:13:52.800Z,4.90
2019-05-25T01:14:52.721Z,4.60
2019-05-25T01:15:52.715Z,5.10
2019-05-25T01:16:52.710Z,5.30
2019-05-25T01:17:52.679Z,5.50
2019-05-25T01:18:52.708Z,5.10
2019-05-25T01:19:52.671Z,5.50
2019-05-25T01:20:52.652Z,5.70
2019-05-25T01:21:52.669Z,5.10
2019-05-25T01:22:52.634Z,5.70
2019-05-25T01:23:52.655Z,5.70
2019-05-25T01:24:52.687Z,5.50
2019-05-25T01:25:52.581Z,5.60
2019-05-25T01:26:52.582Z,6.10
2019-05-25T01:27:52.591Z,5.60
2019-05-25T01:28:52.607Z,6.00
2019-05-25T01:29:52.553Z,5.80
2019-05-25T01:30:52.564Z,5.70
2019-05-25T01:31:52.549Z,5.60
2019-05-25T01:32:52.509Z,6.10
2019-05-25T01:33:52.527Z,5.70
2019-05-25T01:34:52.519Z,5.90
2019-05-25T01:35:52.508Z,5.50
2019-05-25T01:36:52.484Z,5.40
2019-05-25T01:37:52.486Z,5.30
2019-05-25T01:38:52.474Z,5.80
2019-05-25T01:39:52.462Z,5.70
2019-05-25T01:40:52.460Z,5.30
2019-05-25T01:41:52.416Z,5.50
2019-05-25T01:42:52.395Z,5.80
2019-05-25T01:43:52.409Z,5.30
2019-05-25T01:44:52.405Z,5.40
2019-05-25T01:45:52.408Z,5.90
2019-05-25T01:46:52.388Z,6.10
2019-05-25T01:47:52.353Z,6.00
2019-05-25T01:48:52.391Z,6.30
2019-05-25T01:49:52.345Z,5.60
2019-05-25T01:50:52.343Z,6.10
2019-05-25T01:51:52.303Z,5.80
2019-05-25T01:52:52.285Z,5.60
2019-05-25T01:53:52.283Z,5.80
2019-05-25T01:54:59.754Z,5.30
2019-05-25T01:55:52.302Z,6.30
2019-05-25T01:56:52.243Z,5.80
2019-05-25T01:57:52.237Z,5.70
2019-05-25T01:58:52.239Z,5.90
2019-05-25T01:59:52.222Z,5.90
2019-05-25T02:00:52.207Z,5.70
2019-05-25T02:01:52.215Z,5.70
2019-05-25T02:02:52.208Z,5.40
2019-05-25T02:03:52.201Z,5.90
2019-05-25T02:04:52.181Z,6.10
2019-05-25T02:05:52.158Z,5.70
2019-05-25T02:06:52.149Z,5.90
2019-05-25T02:07:52.155Z,6.10
2019-05-25T02:08:52.105Z,6.00
2019-05-25T02:09:52.155Z,6.50
2019-05-25T02:10:52.119Z,6.10
2019-05-25T02:11:52.101Z,6.60
2019-05-25T02:12:52.177Z,6.20
2019-05-25T02:13:52.054Z,5.90
2019-05-25T02:14:52.092Z,6.10
2019-05-25T02:15:52.035Z,6.30
2019-05-25T02:16:52.041Z,6.20
2019-05-25T02:17:52.028Z,6.30
2019-05-25T02:18:52.012Z,6.30
2019-05-25T02:19:52.026Z,7.00
2019-05-25T02:20:51.987Z,6.60
2019-05-25T02:21:51.972Z,7.00
2019-05-25T02:22:51.953Z,6.30
2019-05-25T02:23:51.963Z,6.80
2019-05-25T02:24:51.940Z,7.10
2019-05-25T02:25:51.960Z,6.80
2019-05-25T02:26:51.952Z,7.10
2019-05-25T02:27:51.950Z,7.10
2019-05-25T02:28:51.906Z,6.70
2019-05-25T02:29:51.912Z,6.90
2019-05-25T02:30:51.867Z,7.60
2019-05-25T02:31:51.868Z,7.10
2019-05-25T02:32:51.853Z,7.90
2019-05-25T02:33:51.829Z,7.80
2019-05-25T02:34:51.898Z,7.60
2019-05-25T02:35:51.812Z,7.40
2019-05-25T02:36:51.794Z,7.90
2019-05-25T02:37:51.794Z,8.00
2019-05-25T02:38:51.821Z,7.80
2019-05-25T02:39:51.830Z,8.10
2019-05-25T02:40:51.755Z,7.70
2019-05-25T02:41:51.745Z,8.10
2019-05-25T02:42:51.762Z,7.90
2019-05-25T02:43:51.738Z,8.00
2019-05-25T02:44:51.753Z,8.10
2019-05-25T02:45:51.721Z,8.10
2019-05-25T02:46:51.731Z,7.30
2019-05-25T02:47:51.690Z,8.00
2019-05-25T02:48:51.673Z,8.10
2019-05-25T02:49:51.709Z,8.20
2019-05-25T02:50:53.120Z,8.10
2019-05-25T02:51:51.646Z,7.80
2019-05-25T02:52:51.661Z,8.30
2019-05-25T02:53:51.648Z,8.50
2019-05-25T02:54:51.637Z,9.00
2019-05-25T02:55:51.597Z,8.60
2019-05-25T02:56:51.595Z,8.70
2019-05-25T02:57:51.578Z,8.70
2019-05-25T02:58:51.599Z,9.10
2019-05-25T02:59:51.579Z,8.50
2019-05-25T03:00:51.565Z,8.90
2019-05-25T03:01:51.531Z,8.40
2019-05-25T03:02:51.554Z,8.80
2019-05-25T03:05:00.747Z,8.50
2019-05-25T03:06:01.791Z,9.10
2019-05-25T03:07:01.709Z,10.10
2019-05-25T03:08:01.705Z,9.50
2019-05-25T03:09:01.718Z,9.90
2019-05-25T03:10:01.726Z,9.80
2019-05-25T03:11:01.671Z,10.50
2019-05-25T03:12:01.663Z,9.90
2019-05-25T03:13:01.652Z,9.50
2019-05-25T03:14:01.631Z,9.40
2019-05-25T03:15:01.678Z,10.10
2019-05-25T03:16:01.610Z,10.00
2019-05-25T03:17:01.590Z,9.70
2019-05-25T03:18:01.592Z,10.20
2019-05-25T03:19:01.579Z,10.10
2019-05-25T03:20:01.588Z,10.30
2019-05-25T03:21:01.551Z,9.80
2019-05-25T03:22:01.552Z,9.30
2019-05-25T03:23:01.551Z,9.90
2019-05-25T03:24:01.530Z,10.00
2019-05-25T03:25:01.514Z,9.40
2019-05-25T03:26:01.523Z,9.40
2019-05-25T03:27:01.508Z,9.20
2019-05-25T03:28:01.481Z,9.50
2019-05-25T03:29:01.460Z,9.10
2019-05-25T03:30:01.711Z,9.60
2019-05-25T03:31:01.463Z,8.70
2019-05-25T03:32:01.439Z,8.60
2019-05-25T03:33:01.587Z,9.40
2019-05-25T03:34:01.419Z,8.80
2019-05-25T03:35:01.501Z,8.80
2019-05-25T03:36:01.415Z,9.20
2019-05-25T03:37:01.389Z,8.50
2019-05-25T03:38:01.380Z,8.70
2019-05-25T03:39:01.369Z,8.50
2019-05-25T03:40:01.351Z,8.30
2019-05-25T03:41:01.348Z,8.30
2019-05-25T03:42:01.326Z,8.60
2019-05-25T03:43:01.344Z,8.40
2019-05-25T03:44:01.297Z,8.60
2019-05-25T03:45:01.283Z,8.00
2019-05-25T03:46:01.294Z,8.10
2019-05-25T03:47:01.287Z,8.10
2019-05-25T03:48:01.267Z,8.30
2019-05-25T03:49:01.314Z,8.00
2019-05-25T03:50:01.241Z,8.20
2019-05-25T03:51:01.264Z,7.80
2019-05-25T03:52:01.227Z,7.90
2019-05-25T03:53:01.204Z,7.90
2019-05-25T03:54:01.206Z,7.50
2019-05-25T03:55:01.176Z,7.90
2019-05-25T03:56:05.998Z,8.10
2019-05-25T03:57:01.166Z,7.30
2019-05-25T03:58:01.140Z,7.60
2019-05-25T03:59:01.140Z,7.40
2019-05-25T04:00:01.131Z,7.20
2019-05-25T04:01:01.153Z,7.50
2019-05-25T04:02:01.113Z,6.70
2019-05-25T04:03:01.103Z,6.20
2019-05-25T04:04:01.089Z,6.50
2019-05-25T04:05:01.074Z,6.60
2019-05-25T04:06:01.072Z,7.10
2019-05-25T04:07:01.056Z,6.40
2019-05-25T04:08:01.033Z,5.90
2019-05-25T04:09:01.057Z,5.80
2019-05-25T04:10:01.057Z,6.60
2019-05-25T04:11:01.018Z,6.40
2019-05-25T04:12:01.006Z,5.80
2019-05-25T04:13:00.977Z,5.80
2019-05-25T04:14:00.991Z,6.10
2019-05-25T04:15:00.992Z,5.70
2019-05-25T04:16:00.984Z,6.30
2019-05-25T04:17:00.947Z,6.20
2019-05-25T04:18:00.929Z,6.10
2019-05-25T04:19:00.912Z,5.80
2019-05-25T04:20:00.915Z,6.20
2019-05-25T04:21:00.927Z,6.00
2019-05-25T04:22:00.900Z,6.60
2019-05-25T04:23:00.873Z,6.20
2019-05-25T04:24:00.857Z,6.50
2019-05-25T04:25:00.858Z,6.20
2019-05-25T04:26:00.867Z,6.30
2019-05-25T04:27:00.837Z,6.90
2019-05-25T04:28:00.821Z,6.40
2019-05-25T04:29:00.810Z,6.40
2019-05-25T04:30:00.801Z,6.40
2019-05-25T04:31:00.815Z,6.50
2019-05-25T04:32:00.795Z,6.50
2019-05-25T04:33:00.790Z,6.60
2019-05-25T04:34:00.761Z,6.60
2019-05-25T04:35:00.923Z,6.40
2019-05-25T04:36:00.742Z,6.40
2019-05-25T04:37:00.725Z,6.20
2019-05-25T04:38:00.717Z,6.20
2019-05-25T04:39:00.715Z,6.50
2019-05-25T04:40:00.748Z,6.60
2019-05-25T04:41:00.750Z,6.40
2019-05-25T04:42:00.667Z,6.40
2019-05-25T04:43:00.670Z,6.30
2019-05-25T04:44:00.649Z,6.20
2019-05-25T04:45:00.638Z,5.90
2019-05-25T04:46:00.634Z,6.10
2019-05-25T04:47:00.619Z,6.40
2019-05-25T04:48:00.608Z,6.20
2019-05-25T04:49:00.592Z,6.00
2019-05-25T04:50:00.583Z,6.20
2019-05-25T04:51:00.566Z,6.60
2019-05-25T04:52:00.578Z,6.30
2019-05-25T04:53:00.552Z,6.60
2019-05-25T04:54:00.538Z,6.60
2019-05-25T04:55:00.524Z,6.40
2019-05-25T04:56:00.503Z,6.60
2019-05-25T04:57:00.534Z,6.60
2019-05-25T04:58:00.514Z,6.80
2019-05-25T04:59:00.478Z,6.30
2019-05-25T05:00:00.476Z,6.80
2019-05-25T05:01:00.491Z,7.00
2019-05-25T05:02:00.501Z,7.00
2019-05-25T05:03:00.451Z,6.90
2019-05-25T05:04:00.417Z,6.80
2019-05-25T05:06:09.599Z,7.00
2019-05-25T05:07:10.621Z,6.90
2019-05-25T05:08:10.588Z,6.80
2019-05-25T05:09:10.572Z,6.90
2019-05-25T05:10:10.557Z,6.40
2019-05-25T05:11:10.556Z,7.00
2019-05-25T05:12:10.558Z,7.10
2019-05-25T05:13:10.526Z,6.80
2019-05-25T05:14:10.585Z,6.80
2019-05-25T05:15:10.515Z,6.50
2019-05-25T05:16:10.486Z,7.40
2019-05-25T05:17:10.511Z,6.40
2019-05-25T05:18:10.481Z,6.50
2019-05-25T05:19:10.477Z,6.60
2019-05-25T05:20:10.447Z,7.00
2019-05-25T05:21:10.444Z,6.90
2019-05-25T05:22:10.441Z,6.70
2019-05-25T05:23:10.424Z,6.60
2019-05-25T05:24:10.420Z,6.90
2019-05-25T05:25:11.106Z,6.40
2019-05-25T05:26:10.395Z,6.30
2019-05-25T05:27:10.384Z,7.20
2019-05-25T05:28:10.365Z,6.90
2019-05-25T05:29:10.366Z,7.10
2019-05-25T05:30:10.340Z,6.60
2019-05-25T05:31:22.669Z,6.80
2019-05-25T05:32:10.352Z,6.20
2019-05-25T05:33:10.306Z,6.80
2019-05-25T05:34:10.291Z,7.30
2019-05-25T05:35:10.295Z,6.90
2019-05-25T05:36:10.275Z,6.70
2019-05-25T05:37:10.280Z,6.60
2019-05-25T05:38:10.249Z,7.20
2019-05-25T05:39:10.250Z,6.80
2019-05-25T05:40:10.237Z,6.90
2019-05-25T05:41:10.222Z,6.20
2019-05-25T05:42:10.233Z,6.80
2019-05-25T05:43:10.214Z,6.80
2019-05-25T05:44:10.193Z,6.70
2019-05-25T05:45:10.180Z,6.90
2019-05-25T05:46:10.162Z,6.70
2019-05-25T05:47:10.596Z,6.50
2019-05-25T05:48:10.145Z,7.20
2019-05-25T05:49:10.139Z,7.10
2019-05-25T05:50:10.123Z,6.70
2019-05-25T05:51:10.106Z,6.80
2019-05-25T05:52:10.130Z,7.30
2019-05-25T05:53:10.113Z,7.50
2019-05-25T05:54:10.075Z,6.70
2019-05-25T05:55:10.077Z,7.40
2019-05-25T05:56:10.055Z,7.50
2019-05-25T05:57:12.723Z,7.40
2019-05-25T05:58:10.081Z,7.40
2019-05-25T05:59:10.042Z,7.50
2019-05-25T06:00:10.020Z,7.10
2019-05-25T06:01:10.005Z,7.20
2019-05-25T06:02:10.027Z,7.30
2019-05-25T06:03:09.989Z,7.20
2019-05-25T06:04:09.971Z,7.00
2019-05-25T06:05:09.963Z,7.70
2019-05-25T06:06:09.959Z,7.10
2019-05-25T06:07:09.950Z,7.20
2019-05-25T06:08:09.947Z,7.40
2019-05-25T06:09:09.918Z,7.40
2019-05-25T06:10:09.907Z,7.50
2019-05-25T06:11:09.893Z,7.60
2019-05-25T06:12:09.894Z,7.40
2019-05-25T06:13:09.911Z,8.00
2019-05-25T06:14:09.866Z,7.40
2019-05-25T06:15:09.857Z,7.70
2019-05-25T06:16:09.846Z,7.70
2019-05-25T06:17:09.842Z,7.60
2019-05-25T06:18:09.838Z,8.00
2019-05-25T06:19:09.817Z,7.40
2019-05-25T06:20:09.805Z,7.60
2019-05-25T06:21:09.795Z,8.00
2019-05-25T06:22:09.782Z,8.10
2019-05-25T06:23:12.287Z,7.90
2019-05-25T06:24:09.752Z,7.40
2019-05-25T06:25:09.744Z,7.70
2019-05-25T06:26:09.772Z,7.50
2019-05-25T06:27:09.714Z,8.30
2019-05-25T06:28:09.734Z,7.60
2019-05-25T06:29:09.701Z,8.00
2019-05-25T06:30:09.701Z,7.90
2019-05-25T06:31:09.685Z,8.60
2019-05-25T06:32:09.666Z,7.30
2019-05-25T06:33:09.681Z,8.10
2019-05-25T06:34:09.653Z,7.70
2019-05-25T06:35:09.642Z,7.60
2019-05-25T06:36:09.619Z,7.90
2019-05-25T06:37:09.620Z,7.50
2019-05-25T06:38:09.624Z,7.80
2019-05-25T06:39:09.602Z,7.40
2019-05-25T06:40:09.580Z,7.10
2019-05-25T06:41:09.577Z,7.30
2019-05-25T06:42:09.556Z,7.60
2019-05-25T06:43:09.570Z,7.10
2019-05-25T06:44:09.545Z,8.00
2019-05-25T06:45:09.519Z,7.40
2019-05-25T06:46:09.524Z,7.30
2019-05-25T06:47:09.502Z,6.70
2019-05-25T06:48:09.518Z,5.90
2019-05-25T06:49:09.480Z,6.70
2019-05-25T06:50:09.464Z,6.50
2019-05-25T06:51:09.457Z,6.20
2019-05-25T06:52:09.453Z,6.30
2019-05-25T06:53:09.454Z,6.10
2019-05-25T06:54:09.443Z,6.70
2019-05-25T06:55:09.426Z,6.30
2019-05-25T06:56:09.403Z,6.50
2019-05-25T06:57:09.440Z,6.70
2019-05-25T06:58:09.414Z,7.30
2019-05-25T06:59:09.385Z,7.10
2019-05-25T07:00:09.357Z,7.30
2019-05-25T07:01:09.352Z,6.70
2019-05-25T07:02:09.348Z,7.30
2019-05-25T07:03:09.345Z,6.80
2019-05-25T07:04:09.327Z,6.90
2019-05-25T07:05:09.319Z,6.80
2019-05-25T07:07:18.483Z,5.80
2019-05-25T07:08:19.495Z,6.60
2019-05-25T07:09:19.474Z,6.50
2019-05-25T07:10:19.448Z,6.10
2019-05-25T07:11:19.444Z,5.60
2019-05-25T07:12:19.434Z,5.40
2019-05-25T07:13:19.431Z,4.90
2019-05-25T07:14:19.409Z,5.30
2019-05-25T07:15:19.398Z,5.10
2019-05-25T07:16:19.375Z,4.60
2019-05-25T07:17:19.375Z,4.50
2019-05-25T07:18:19.380Z,5.30
2019-05-25T07:19:19.349Z,4.90
2019-05-25T07:20:19.348Z,5.40
2019-05-25T07:21:19.337Z,5.30
2019-05-25T07:22:19.322Z,4.60
2019-05-25T07:23:19.321Z,4.90
2019-05-25T07:24:19.286Z,5.10
2019-05-25T07:25:20.271Z,5.50
2019-05-25T07:26:19.281Z,5.50
2019-05-25T07:27:19.283Z,5.30
2019-05-25T07:28:19.275Z,5.70
2019-05-25T07:29:19.244Z,5.60
2019-05-25T07:30:19.233Z,5.40
2019-05-25T07:31:19.219Z,5.90
2019-05-25T07:32:19.208Z,5.90
2019-05-25T07:33:19.220Z,5.30
2019-05-25T07:34:19.182Z,6.20
2019-05-25T07:35:19.174Z,5.60
2019-05-25T07:36:19.172Z,5.10
2019-05-25T07:37:19.145Z,4.80
2019-05-25T07:38:19.164Z,5.10
2019-05-25T07:39:19.124Z,4.60
2019-05-25T07:40:19.109Z,5.00
2019-05-25T07:41:19.110Z,4.80
2019-05-25T07:42:20.078Z,4.60
2019-05-25T07:43:19.108Z,4.40
2019-05-25T07:44:19.083Z,4.90
2019-05-25T07:45:19.060Z,4.60
2019-05-25T07:46:19.860Z,5.00
2019-05-25T07:47:19.043Z,5.00
2019-05-25T07:48:19.024Z,4.80
2019-05-25T07:49:19.052Z,5.30
2019-05-25T07:50:19.003Z,5.00
2019-05-25T07:51:19.006Z,5.20
2019-05-25T07:52:18.986Z,4.80
2019-05-25T07:53:18.996Z,4.80
2019-05-25T07:54:18.988Z,5.50
2019-05-25T07:55:18.954Z,5.40
2019-05-25T07:56:18.935Z,4.60
2019-05-25T07:57:18.933Z,5.20
2019-05-25T07:58:18.939Z,5.10
2019-05-25T07:59:18.910Z,4.50
2019-05-25T08:00:18.923Z,4.30
2019-05-25T08:01:18.884Z,4.10
2019-05-25T08:02:18.868Z,4.70
2019-05-25T08:03:18.856Z,3.70
2019-05-25T08:04:18.863Z,3.90
2019-05-25T08:05:18.840Z,4.10
2019-05-25T08:06:18.822Z,4.30
2019-05-25T08:07:18.811Z,4.00
2019-05-25T08:08:18.811Z,3.90
2019-05-25T08:09:18.836Z,4.60
2019-05-25T08:10:18.790Z,4.10
2019-05-25T08:11:18.764Z,4.50
2019-05-25T08:12:18.765Z,3.80
2019-05-25T08:13:18.742Z,4.00
2019-05-25T08:14:18.748Z,3.70
2019-05-25T08:15:18.721Z,3.80
2019-05-25T08:16:18.714Z,4.20
2019-05-25T08:17:18.710Z,3.60
2019-05-25T08:18:18.701Z,3.80
2019-05-25T08:19:18.700Z,4.00
2019-05-25T08:20:18.671Z,3.90
2019-05-25T08:21:18.648Z,4.10
2019-05-25T08:22:18.638Z,4.00
2019-05-25T08:23:18.627Z,3.80
2019-05-25T08:24:18.653Z,3.80
2019-05-25T08:25:18.626Z,3.50
2019-05-25T08:26:18.602Z,4.00
2019-05-25T08:27:18.587Z,4.00
2019-05-25T08:28:31.819Z,3.40
2019-05-25T08:29:18.586Z,3.80
2019-05-25T08:30:18.563Z,3.80
2019-05-25T08:31:18.538Z,3.80
2019-05-25T08:32:18.536Z,4.00
2019-05-25T08:33:18.524Z,3.40
2019-05-25T08:34:18.528Z,3.80
2019-05-25T08:35:18.497Z,3.70
2019-05-25T08:36:18.493Z,3.60
2019-05-25T08:37:18.480Z,4.50
2019-05-25T08:38:18.474Z,3.90
2019-05-25T08:39:18.472Z,4.10
2019-05-25T08:40:18.445Z,3.70
2019-05-25T08:41:18.431Z,4.00
2019-05-25T08:42:18.428Z,4.10
2019-05-25T08:43:18.415Z,3.90
2019-05-25T08:44:18.417Z,4.50
2019-05-25T08:45:18.425Z,4.10
2019-05-25T08:46:18.387Z,3.80
2019-05-25T08:47:18.366Z,4.20
2019-05-25T08:48:18.376Z,3.90
2019-05-25T08:49:18.353Z,4.10
2019-05-25T08:50:18.358Z,3.80
2019-05-25T08:51:18.322Z,4.10
2019-05-25T08:52:18.359Z,4.00
2019-05-25T08:53:21.554Z,4.00
2019-05-25T08:54:18.292Z,3.60
2019-05-25T08:55:18.285Z,3.50
2019-05-25T08:56:18.283Z,3.60
2019-05-25T08:57:18.760Z,4.00
2019-05-25T08:58:18.259Z,4.20
2019-05-25T08:59:18.248Z,4.10
2019-05-25T09:00:18.250Z,4.00
2019-05-25T09:01:18.221Z,3.90
2019-05-25T09:02:18.205Z,4.70
2019-05-25T09:03:18.193Z,4.10
2019-05-25T09:04:18.184Z,4.20
2019-05-25T09:05:18.186Z,4.20
2019-05-25T09:06:18.163Z,4.00
2019-05-25T09:08:27.350Z,3.50
2019-05-25T09:09:28.329Z,3.70
2019-05-25T09:10:28.506Z,3.70
2019-05-25T09:11:28.306Z,3.70
2019-05-25T09:12:28.296Z,3.40
2019-05-25T09:13:28.284Z,3.80
2019-05-25T09:14:28.268Z,3.70
2019-05-25T09:15:28.282Z,3.80
2019-05-25T09:16:28.259Z,3.90
2019-05-25T09:17:28.247Z,3.80
2019-05-25T09:18:28.237Z,3.80
2019-05-25T09:19:28.213Z,3.40
2019-05-25T09:20:28.241Z,3.80
2019-05-25T09:21:28.209Z,3.80
2019-05-25T09:22:28.196Z,3.50
2019-05-25T09:23:28.182Z,3.50
2019-05-25T09:24:28.165Z,3.80
2019-05-25T09:25:28.162Z,4.30
2019-05-25T09:26:28.149Z,3.70
2019-05-25T09:27:28.150Z,3.80
2019-05-25T09:28:28.122Z,3.70
2019-05-25T09:29:28.131Z,3.60
2019-05-25T09:30:28.120Z,3.80
2019-05-25T09:31:28.097Z,3.50
2019-05-25T09:32:28.092Z,4.40
2019-05-25T09:33:28.063Z,4.50
2019-05-25T09:34:28.085Z,3.90
2019-05-25T09:35:28.089Z,3.90
2019-05-25T09:36:28.037Z,4.10
2019-05-25T09:37:28.040Z,4.70
2019-05-25T09:38:28.014Z,3.90
2019-05-25T09:39:28.006Z,4.30
2019-05-25T09:40:28.018Z,4.60
2019-05-25T09:41:27.985Z,4.20
2019-05-25T09:42:27.965Z,4.50
2019-05-25T09:43:27.952Z,4.30
2019-05-25T09:44:27.942Z,4.40
2019-05-25T09:45:27.953Z,4.60
2019-05-25T09:46:27.921Z,4.20
2019-05-25T09:47:27.913Z,4.60
2019-05-25T09:48:27.898Z,4.10
2019-05-25T09:49:27.887Z,4.50
2019-05-25T09:50:27.941Z,4.50
2019-05-25T09:51:27.869Z,4.30
2019-05-25T09:52:27.863Z,4.30
2019-05-25T09:53:27.856Z,4.30
2019-05-25T09:54:27.860Z,4.30
2019-05-25T09:55:27.829Z,4.60
2019-05-25T09:56:27.817Z,4.20
2019-05-25T09:57:27.810Z,4.20
2019-05-25T09:58:27.790Z,4.50
2019-05-25T09:59:27.802Z,4.70
2019-05-25T10:00:27.794Z,4.10
2019-05-25T10:01:27.772Z,4.40
2019-05-25T10:02:27.758Z,4.80
2019-05-25T10:03:27.743Z,4.70
2019-05-25T10:04:27.727Z,4.90
2019-05-25T10:05:27.838Z,4.20
2019-05-25T10:06:27.720Z,4.60
2019-05-25T10:07:27.721Z,4.30
2019-05-25T10:08:27.675Z,4.20
2019-05-25T10:09:27.670Z,4.20
2019-05-25T10:10:27.677Z,4.20
2019-05-25T10:11:27.657Z,4.40
2019-05-25T10:12:27.640Z,4.20
2019-05-25T10:13:27.620Z,4.40
2019-05-25T10:14:27.606Z,4.20
2019-05-25T10:15:28.474Z,4.50
2019-05-25T10:16:27.617Z,4.30
2019-05-25T10:17:27.579Z,4.00
2019-05-25T10:18:27.588Z,4.00
2019-05-25T10:19:27.549Z,4.00
2019-05-25T10:20:27.547Z,3.30
2019-05-25T10:21:27.548Z,3.60
2019-05-25T10:22:27.534Z,3.80
2019-05-25T10:23:27.508Z,3.90
2019-05-25T10:24:27.511Z,3.90
2019-05-25T10:25:27.493Z,4.50
2019-05-25T10:26:27.504Z,4.30
2019-05-25T10:27:27.468Z,3.80
2019-05-25T10:28:27.478Z,3.40
2019-05-25T10:29:36.756Z,3.90
2019-05-25T10:30:27.444Z,4.00
2019-05-25T10:31:27.441Z,3.50
2019-05-25T10:32:27.423Z,4.00
2019-05-25T10:33:27.414Z,3.80
2019-05-25T10:34:27.397Z,3.90
2019-05-25T10:35:27.465Z,3.60
2019-05-25T10:36:27.387Z,3.60
2019-05-25T10:37:27.361Z,3.80
2019-05-25T10:38:27.340Z,3.70
2019-05-25T10:39:27.507Z,3.90
2019-05-25T10:40:27.340Z,4.10
2019-05-25T10:41:27.342Z,3.80
2019-05-25T10:42:27.310Z,4.00
2019-05-25T10:43:27.301Z,4.00
2019-05-25T10:44:27.273Z,4.10
2019-05-25T10:45:27.277Z,3.70
2019-05-25T10:46:27.311Z,4.10
2019-05-25T10:47:27.248Z,4.00
2019-05-25T10:48:27.246Z,4.00
2019-05-25T10:49:27.228Z,3.60
2019-05-25T10:50:27.228Z,3.70
2019-05-25T10:51:27.230Z,3.80
2019-05-25T10:52:27.205Z,3.80
2019-05-25T10:53:27.189Z,4.30
2019-05-25T10:54:27.174Z,3.90
2019-05-25T10:55:27.157Z,4.20
2019-05-25T10:56:27.175Z,3.80
2019-05-25T10:57:27.145Z,4.10
2019-05-25T10:58:27.134Z,3.90
2019-05-25T10:59:27.111Z,3.60
2019-05-25T11:00:27.108Z,4.20
2019-05-25T11:01:27.205Z,3.90
2019-05-25T11:02:27.086Z,3.90
2019-05-25T11:03:27.082Z,4.00
2019-05-25T11:04:27.064Z,4.10
2019-05-25T11:05:27.049Z,4.10
2019-05-25T11:06:27.070Z,3.60
2019-05-25T11:07:27.043Z,4.30
2019-05-25T11:09:37.403Z,3.80
2019-05-25T11:10:38.339Z,4.00
2019-05-25T11:11:38.332Z,4.30
2019-05-25T11:12:38.343Z,4.60
2019-05-25T11:13:38.303Z,4.40
2019-05-25T11:14:38.320Z,4.40
2019-05-25T11:15:38.288Z,4.10
2019-05-25T11:16:38.302Z,3.80
2019-05-25T11:17:38.256Z,4.60
2019-05-25T11:18:38.308Z,4.20
2019-05-25T11:19:38.245Z,4.40
2019-05-25T11:20:38.279Z,3.90
2019-05-25T11:21:38.262Z,4.30
2019-05-25T11:22:38.205Z,4.20
2019-05-25T11:23:38.197Z,4.10
2019-05-25T11:24:38.187Z,4.00
2019-05-25T11:25:38.197Z,4.30
2019-05-25T11:26:38.176Z,3.90
2019-05-25T11:27:38.225Z,4.00
2019-05-25T11:28:38.142Z,4.10
2019-05-25T11:29:38.124Z,3.90
2019-05-25T11:30:38.122Z,4.10
2019-05-25T11:31:38.289Z,4.40
2019-05-25T11:32:38.127Z,4.00
2019-05-25T11:33:38.109Z,3.90
2019-05-25T11:34:38.088Z,4.20
2019-05-25T11:35:38.082Z,4.10
2019-05-25T11:36:38.076Z,4.30
2019-05-25T11:37:38.101Z,4.60
2019-05-25T11:38:38.044Z,4.20
2019-05-25T11:39:38.065Z,4.00
2019-05-25T11:40:38.015Z,4.10
2019-05-25T11:41:37.998Z,4.30
2019-05-25T11:42:38.029Z,4.50
2019-05-25T11:43:38.006Z,4.30
2019-05-25T11:44:37.969Z,4.50
2019-05-25T11:45:38.000Z,4.10
2019-05-25T11:46:37.997Z,4.40
2019-05-25T11:47:37.958Z,4.50
2019-05-25T11:48:37.943Z,4.20
2019-05-25T11:49:37.914Z,4.00
2019-05-25T11:50:37.933Z,4.20
2019-05-25T11:51:37.917Z,4.30
2019-05-25T11:52:38.136Z,4.40
2019-05-25T11:53:37.886Z,4.30
2019-05-25T11:54:37.865Z,4.40
2019-05-25T11:55:37.884Z,4.20
2019-05-25T11:56:37.829Z,4.20
2019-05-25T11:57:37.852Z,4.70
2019-05-25T11:58:46.966Z,4.10
2019-05-25T11:59:37.813Z,4.30
2019-05-25T12:00:37.808Z,4.30
2019-05-25T12:01:37.783Z,4.90
2019-05-25T12:02:37.797Z,4.30
2019-05-25T12:03:37.777Z,4.00
2019-05-25T12:04:37.789Z,4.10
2019-05-25T12:05:37.758Z,4.60
2019-05-25T12:06:37.741Z,4.50
2019-05-25T12:07:37.733Z,4.40
2019-05-25T12:08:37.716Z,4.80
2019-05-25T12:09:37.705Z,4.60
2019-05-25T12:10:37.694Z,4.60
2019-05-25T12:11:37.689Z,4.40
2019-05-25T12:12:37.681Z,4.40
2019-05-25T12:13:37.656Z,4.90
2019-05-25T12:14:37.668Z,4.70
2019-05-25T12:15:37.685Z,4.40
2019-05-25T12:16:37.647Z,4.50
2019-05-25T12:17:37.655Z,4.40
2019-05-25T12:18:37.624Z,4.90
2019-05-25T12:19:37.610Z,4.60
2019-05-25T12:20:37.584Z,4.60
2019-05-25T12:21:37.564Z,4.10
2019-05-25T12:22:37.601Z,4.50
2019-05-25T12:23:37.544Z,4.60
2019-05-25T12:24:37.560Z,4.50
2019-05-25T12:25:37.537Z,4.50
2019-05-25T12:26:37.514Z,4.20
2019-05-25T12:27:37.546Z,4.50
2019-05-25T12:28:37.649Z,4.40
2019-05-25T12:29:37.486Z,5.00
2019-05-25T12:30:40.895Z,4.30
2019-05-25T12:31:37.489Z,4.30
2019-05-25T12:32:37.455Z,4.70
2019-05-25T12:33:37.473Z,4.20
2019-05-25T12:34:37.418Z,4.50
2019-05-25T12:35:37.418Z,4.10
2019-05-25T12:36:37.439Z,4.30
2019-05-25T12:37:37.429Z,4.30
2019-05-25T12:38:37.398Z,4.30
2019-05-25T12:39:37.405Z,4.20
2019-05-25T12:40:52.456Z,4.60
2019-05-25T12:41:37.387Z,4.40
2019-05-25T12:42:37.376Z,4.50
2019-05-25T12:43:37.343Z,4.60
2019-05-25T12:44:37.341Z,4.20
2019-05-25T12:45:37.309Z,4.00
2019-05-25T12:46:37.294Z,4.40
2019-05-25T12:47:37.330Z,4.30
2019-05-25T12:48:37.282Z,4.00
2019-05-25T12:49:50.026Z,4.00
2019-05-25T12:50:37.305Z,4.10
2019-05-25T12:51:37.275Z,4.20
2019-05-25T12:52:37.274Z,3.80
2019-05-25T12:53:37.253Z,4.30
2019-05-25T12:54:37.234Z,4.60
2019-05-25T12:55:37.231Z,4.30
2019-05-25T12:56:37.226Z,4.20
2019-05-25T12:57:37.214Z,4.30
2019-05-25T12:58:37.187Z,4.10
2019-05-25T12:59:37.180Z,4.30
2019-05-25T13:00:37.152Z,4.20
2019-05-25T13:01:37.145Z,4.40
2019-05-25T13:02:37.158Z,3.90
2019-05-25T13:03:37.133Z,4.40
2019-05-25T13:04:37.112Z,3.80
2019-05-25T13:05:37.123Z,4.40
2019-05-25T13:06:37.078Z,3.90
2019-05-25T13:07:37.087Z,3.80
2019-05-25T13:08:37.082Z,4.10
2019-05-25T13:10:46.252Z,2.90
2019-05-25T13:11:47.228Z,3.50
2019-05-25T13:12:47.252Z,3.90
2019-05-25T13:13:47.210Z,3.90
2019-05-25T13:14:47.202Z,4.30
2019-05-25T13:15:47.192Z,4.00
2019-05-25T13:16:47.175Z,3.80
2019-05-25T13:17:47.182Z,3.90
2019-05-25T13:18:47.165Z,4.10
2019-05-25T13:19:47.144Z,4.10
2019-05-25T13:20:47.129Z,4.00
2019-05-25T13:21:47.122Z,3.70
2019-05-25T13:22:47.120Z,4.40
2019-05-25T13:23:47.111Z,4.10
2019-05-25T13:24:47.106Z,4.10
2019-05-25T13:25:47.077Z,4.30
2019-05-25T13:26:47.065Z,4.00